Time;durP1;ratioP1;P1;durP2;ratioP2;P2;SDS_P1;SDS_P2;PMS_P1;PMS_P2;Temp;Humidity;BMP_temperature;BMP_pressure;BME280_temperature;BME280_humidity;BME280_pressure;Samples;Min_cycle;Max_cycle;Signal;HPM_P1;HPM_P2
2022/03/28 00:02:14;;;;;;;19.40;9.20;;;;;;;3.76;92.80;102026.27;105212;1271;61150;-72
2022/03/28 00:04:41;;;;;;;21.50;8.80;;;;;;;3.72;93.75;102023.07;105285;1271;60675;-73
2022/03/28 00:07:08;;;;;;;24.00;9.00;;;;;;;3.67;93.84;102019.64;105241;1271;60464;-70
2022/03/28 00:09:37;;;;;;;25.60;10.30;;;;;;;3.63;94.12;102016.63;105252;1271;70529;-72
2022/03/28 00:12:04;;;;;;;20.50;9.60;;;;;;;3.59;94.20;102012.13;105248;1271;72929;-73
2022/03/28 00:14:30;;;;;;;16.40;9.20;;;;;;;3.55;94.28;102008.54;105121;1271;62520;-71
2022/03/28 00:16:57;;;;;;;21.40;10.40;;;;;;;3.51;94.75;102003.89;105148;1271;61323;-71
2022/03/28 00:19:24;;;;;;;16.00;9.10;;;;;;;3.49;94.82;102006.82;105094;1272;74284;-71
2022/03/28 00:21:51;;;;;;;18.70;9.50;;;;;;;3.46;94.66;102006.33;105162;1271;72539;-74
2022/03/28 00:24:17;;;;;;;23.20;10.70;;;;;;;3.41;94.52;102000.86;105143;1271;72683;-71
2022/03/28 00:26:44;;;;;;;19.10;8.10;;;;;;;3.37;94.97;101997.77;105219;1271;62117;-71
2022/03/28 00:29:11;;;;;;;20.90;10.00;;;;;;;3.37;95.61;101998.80;105223;1271;61320;-73
2022/03/28 00:31:38;;;;;;;18.30;9.40;;;;;;;3.36;95.56;101990.69;105189;1271;75155;-71
2022/03/28 00:34:05;;;;;;;18.00;9.90;;;;;;;3.34;95.51;101990.46;105136;1274;71659;-71
2022/03/28 00:36:32;;;;;;;19.80;9.40;;;;;;;3.31;95.56;101988.58;105234;1272;74029;-71
2022/03/28 00:38:59;;;;;;;21.30;10.00;;;;;;;3.29;95.87;101986.24;105110;1272;61885;-74
2022/03/28 00:41:26;;;;;;;22.50;11.10;;;;;;;3.27;96.38;101990.69;105186;1271;61778;-72
2022/03/28 00:43:57;;;;;;;21.40;10.20;;;;;;;3.29;97.34;101983.96;105170;1274;75150;-70
2022/03/28 00:46:24;;;;;;;22.60;10.10;;;;;;;3.28;97.43;101982.27;105278;1274;71335;-71
2022/03/28 00:48:52;;;;;;;23.40;10.40;;;;;;;3.25;97.06;101977.34;105278;1272;73243;-71
2022/03/28 00:51:21;;;;;;;27.90;10.80;;;;;;;3.22;96.74;101974.38;105267;1271;61259;-70
2022/03/28 00:53:50;;;;;;;20.10;9.20;;;;;;;3.18;96.78;101970.77;105325;1272;61084;-73
2022/03/28 00:56:18;;;;;;;20.20;10.20;;;;;;;3.16;96.81;101967.98;105214;1273;74180;-71
2022/03/28 00:58:46;;;;;;;21.50;9.60;;;;;;;3.13;96.96;101965.51;105173;1272;71408;-71
2022/03/28 01:01:13;;;;;;;22.00;10.10;;;;;;;3.10;96.82;101961.86;105212;1271;72845;-74
2022/03/28 01:03:40;;;;;;;23.20;10.20;;;;;;;3.06;96.81;101961.05;105278;1272;61531;-71
2022/03/28 01:06:07;;;;;;;25.40;10.80;;;;;;;3.03;97.04;101955.64;105531;1271;61056;-72
2022/03/28 01:08:35;;;;;;;24.10;11.00;;;;;;;3.03;97.29;101954.29;105214;1272;75203;-70
2022/03/28 01:11:13;;;;;;;30.80;11.90;;;;;;;3.01;97.26;101950.73;105326;1274;71350;-75
2022/03/28 01:13:41;;;;;;;28.70;10.80;;;;;;;3.00;97.51;101946.95;105159;1270;72080;-71
2022/03/28 01:16:09;;;;;;;32.20;13.90;;;;;;;2.98;97.46;101943.92;105285;1274;60641;-71
2022/03/28 01:18:36;;;;;;;25.70;11.40;;;;;;;3.00;98.54;101933.84;105316;1273;60851;-73
2022/03/28 01:21:06;;;;;;;26.00;11.60;;;;;;;3.03;99.15;101930.52;105291;1274;74154;-72
2022/03/28 01:23:32;;;;;;;33.50;12.50;;;;;;;3.03;98.94;101928.56;105406;1271;72052;-73
2022/03/28 01:26:00;;;;;;;27.30;11.20;;;;;;;3.04;99.11;101928.36;105214;1272;74007;-70
2022/03/28 01:28:27;;;;;;;30.10;13.30;;;;;;;3.04;99.24;101925.36;105219;1274;62766;-73
2022/03/28 01:30:54;;;;;;;28.80;12.30;;;;;;;3.03;99.35;101924.87;105361;1272;60502;-72
2022/03/28 01:33:22;;;;;;;28.30;13.20;;;;;;;3.01;99.42;101921.52;105238;1271;73562;-71
2022/03/28 01:35:52;;;;;;;26.70;12.70;;;;;;;3.00;99.15;101922.65;105379;1271;72218;-71
2022/03/28 01:38:20;;;;;;;31.50;13.30;;;;;;;2.97;99.34;101926.13;105230;1271;74069;-71
2022/03/28 01:40:50;;;;;;;27.30;13.20;;;;;;;2.93;99.04;101918.01;105452;1272;62505;-69
2022/03/28 01:43:18;;;;;;;24.40;11.50;;;;;;;2.90;99.10;101914.52;105246;1272;60542;-70
2022/03/28 01:45:45;;;;;;;31.20;12.50;;;;;;;2.88;99.32;101913.27;105392;1274;74764;-70
2022/03/28 01:48:12;;;;;;;25.90;11.30;;;;;;;2.84;99.11;101914.34;105055;1274;71355;-71
2022/03/28 01:50:39;;;;;;;30.90;12.70;;;;;;;2.81;99.14;101914.36;105263;1271;72999;-72
2022/03/28 01:53:06;;;;;;;27.10;12.50;;;;;;;2.78;99.06;101909.13;105253;1274;61529;-70
2022/03/28 01:55:33;;;;;;;25.70;11.80;;;;;;;2.75;99.04;101904.80;105230;1272;60819;-72
2022/03/28 01:57:59;;;;;;;31.50;13.70;;;;;;;2.73;99.52;101902.47;105647;1271;74115;-70
2022/03/28 02:00:32;;;;;;;36.60;13.00;;;;;;;2.72;99.87;101901.84;105214;1272;72227;-72
2022/03/28 02:02:59;;;;;;;28.50;13.20;;;;;;;2.72;100.00;101902.38;105243;1271;74030;-72
2022/03/28 02:05:26;;;;;;;21.00;10.30;;;;;;;2.71;100.00;101901.72;105358;1271;61303;-71
2022/03/28 02:07:53;;;;;;;28.10;12.40;;;;;;;2.68;99.97;101901.02;105184;1271;60485;-72
2022/03/28 02:10:21;;;;;;;34.30;13.70;;;;;;;2.65;99.94;101897.16;105237;1271;73531;-71
2022/03/28 02:12:49;;;;;;;27.50;11.60;;;;;;;2.62;100.00;101893.50;105259;1273;71384;-71
2022/03/28 02:15:16;;;;;;;25.70;11.90;;;;;;;2.60;100.00;101887.88;105286;1271;74663;-74
2022/03/28 02:17:44;;;;;;;27.20;12.40;;;;;;;2.58;100.00;101888.70;105246;1274;61738;-69
2022/03/28 02:20:12;;;;;;;29.50;12.50;;;;;;;2.55;100.00;101883.80;105245;1272;60487;-70
2022/03/28 02:22:41;;;;;;;35.30;13.60;;;;;;;2.52;100.00;101879.84;105320;1272;74153;-71
2022/03/28 02:25:10;;;;;;;20.50;9.70;;;;;;;2.51;100.00;101876.21;105247;1271;72486;-74
2022/03/28 02:27:38;;;;;;;30.80;12.30;;;;;;;2.47;100.00;101872.44;105494;1271;72149;-71
2022/03/28 02:30:06;;;;;;;31.30;13.10;;;;;;;2.45;100.00;101867.98;105116;1274;62264;-71
2022/03/28 02:32:33;;;;;;;37.40;14.70;;;;;;;2.43;100.00;101865.52;105492;1271;60401;-71
2022/03/28 02:35:00;;;;;;;35.20;13.90;;;;;;;2.42;100.00;101863.33;105236;1271;73791;-73
2022/03/28 02:37:27;;;;;;;29.20;12.80;;;;;;;2.41;100.00;101861.60;105257;1271;71306;-71
2022/03/28 02:39:53;;;;;;;27.00;11.70;;;;;;;2.40;100.00;101861.54;105163;1273;72905;-73
2022/03/28 02:42:22;;;;;;;28.40;12.10;;;;;;;2.36;100.00;101856.86;105206;1271;61205;-71
2022/03/28 02:44:50;;;;;;;31.90;13.90;;;;;;;2.33;100.00;101858.45;105295;1271;60780;-71
2022/03/28 02:47:21;;;;;;;31.10;12.00;;;;;;;2.31;100.00;101857.73;105261;1271;75913;-71
2022/03/28 02:49:49;;;;;;;36.00;14.10;;;;;;;2.30;100.00;101854.63;105464;1273;73591;-72
2022/03/28 02:52:16;;;;;;;29.20;12.80;;;;;;;2.30;100.00;101850.61;105250;1272;71993;-70
2022/03/28 02:54:43;;;;;;;32.40;12.10;;;;;;;2.28;100.00;101845.64;105124;1271;62245;-71
2022/03/28 02:57:09;;;;;;;31.20;12.30;;;;;;;2.29;100.00;101846.32;105398;1274;60793;-72
2022/03/28 02:59:36;;;;;;;27.80;12.20;;;;;;;2.26;100.00;101841.77;105451;1274;74098;-71
2022/03/28 03:02:03;;;;;;;30.30;12.80;;;;;;;2.23;100.00;101839.13;105469;1274;72982;-70
2022/03/28 03:04:31;;;;;;;36.80;14.10;;;;;;;2.21;100.00;101839.45;105507;1274;72926;-74
2022/03/28 03:06:59;;;;;;;38.80;15.40;;;;;;;2.18;100.00;101832.81;105295;1271;61353;-71
2022/03/28 03:09:26;;;;;;;33.80;12.70;;;;;;;2.18;100.00;101832.30;105224;1274;62141;-72
2022/03/28 03:11:53;;;;;;;35.00;13.70;;;;;;;2.19;100.00;101830.70;105172;1274;75206;-73
2022/03/28 03:14:20;;;;;;;31.40;13.60;;;;;;;2.18;100.00;101830.23;105351;1271;71573;-71
2022/03/28 03:16:47;;;;;;;38.50;13.70;;;;;;;2.16;100.00;101827.35;105270;1274;74067;-70
2022/03/28 03:19:14;;;;;;;30.80;13.20;;;;;;;2.16;100.00;101825.27;105209;1273;62467;-71
2022/03/28 03:21:40;;;;;;;34.40;14.70;;;;;;;2.16;100.00;101828.44;105248;1271;60518;-71
2022/03/28 03:24:07;;;;;;;33.60;13.90;;;;;;;2.14;100.00;101825.92;105142;1272;75288;-72
2022/03/28 03:26:34;;;;;;;28.30;12.30;;;;;;;2.12;100.00;101827.64;105346;1272;72360;-73
2022/03/28 03:29:01;;;;;;;26.80;12.70;;;;;;;2.08;100.00;101824.35;105336;1272;72941;-70
2022/03/28 03:31:28;;;;;;;32.50;12.90;;;;;;;2.03;100.00;101824.61;105312;1271;61680;-70
2022/03/28 03:33:55;;;;;;;28.00;13.40;;;;;;;1.97;100.00;101825.48;105194;1274;60539;-72
2022/03/28 03:36:25;;;;;;;29.40;12.00;;;;;;;1.94;100.00;101823.24;105279;1273;74247;-71
2022/03/28 03:38:51;;;;;;;32.90;12.80;;;;;;;1.92;100.00;101824.92;105236;1271;71506;-71
2022/03/28 03:41:18;;;;;;;34.00;13.40;;;;;;;1.91;100.00;101823.29;105196;1271;60470;-71
2022/03/28 03:43:45;;;;;;;28.20;13.40;;;;;;;1.88;100.00;101820.51;105266;1274;61137;-71
2022/03/28 03:46:11;;;;;;;30.30;12.30;;;;;;;1.83;100.00;101817.95;105218;1271;60658;-70
2022/03/28 03:48:39;;;;;;;38.90;14.30;;;;;;;1.79;100.00;101815.94;105410;1271;74095;-70
2022/03/28 03:51:09;;;;;;;28.20;12.40;;;;;;;1.76;100.00;101815.42;105206;1274;71530;-70
2022/03/28 03:53:35;;;;;;;32.70;13.60;;;;;;;1.74;100.00;101814.32;105260;1274;72730;-72
2022/03/28 03:56:03;;;;;;;28.10;12.10;;;;;;;1.74;100.00;101815.00;105081;1274;61162;-72
2022/03/28 03:58:33;;;;;;;31.70;12.70;;;;;;;1.75;100.00;101813.07;105250;1274;60849;-73
2022/03/28 04:01:00;;;;;;;26.00;10.90;;;;;;;1.76;100.00;101812.66;105300;1272;75429;-71
2022/03/28 04:03:27;;;;;;;23.10;8.60;;;;;;;1.80;100.00;101811.16;105288;1272;70029;-70
2022/03/28 04:05:54;;;;;;;31.00;11.50;;;;;;;1.88;100.00;101814.76;105374;1271;73933;-70
2022/03/28 04:08:20;;;;;;;32.30;10.40;;;;;;;1.93;100.00;101816.83;105227;1274;62872;-71
2022/03/28 04:10:47;;;;;;;28.60;9.60;;;;;;;1.99;100.00;101815.66;105175;1273;61656;-72
2022/03/28 04:13:14;;;;;;;23.70;7.70;;;;;;;2.02;100.00;101815.25;105181;1271;75625;-72
2022/03/28 04:15:41;;;;;;;24.50;8.30;;;;;;;2.06;100.00;101813.83;105165;1271;72609;-71
2022/03/28 04:18:07;;;;;;;19.00;7.80;;;;;;;2.08;100.00;101809.50;105262;1272;73973;-71
2022/03/28 04:20:34;;;;;;;15.30;7.90;;;;;;;2.07;100.00;101806.44;105204;1271;60328;-73
2022/03/28 04:23:00;;;;;;;10.50;5.70;;;;;;;2.08;100.00;101805.51;105302;1271;60425;-71
2022/03/28 04:25:27;;;;;;;7.20;3.20;;;;;;;2.07;100.00;101798.45;105340;1274;60424;-71
2022/03/28 04:27:54;;;;;;;7.30;4.40;;;;;;;2.05;100.00;101797.11;105183;1274;71757;-70
2022/03/28 04:30:22;;;;;;;6.50;3.80;;;;;;;2.07;100.00;101794.60;105306;1272;73007;-71
2022/03/28 04:32:49;;;;;;;10.00;5.80;;;;;;;2.06;100.00;101796.57;105499;1272;62468;-70
2022/03/28 04:35:21;;;;;;;9.40;6.10;;;;;;;2.04;100.00;101791.44;105400;1271;60443;-74
2022/03/28 04:37:48;;;;;;;11.60;5.10;;;;;;;2.03;100.00;101786.79;105540;1271;75429;-74
2022/03/28 04:40:17;;;;;;;12.60;5.80;;;;;;;2.02;100.00;101785.09;105307;1271;71442;-74
2022/03/28 04:42:45;;;;;;;13.10;5.50;;;;;;;2.01;100.00;101783.91;105411;1274;72578;-72
2022/03/28 04:45:12;;;;;;;10.40;3.90;;;;;;;2.01;100.00;101785.15;105364;1271;62749;-73
2022/03/28 04:47:39;;;;;;;12.40;4.90;;;;;;;2.00;100.00;101786.45;105315;1271;62714;-71
2022/03/28 04:50:07;;;;;;;9.30;3.10;;;;;;;1.98;100.00;101782.34;105467;1271;75290;-73
2022/03/28 04:52:34;;;;;;;5.00;2.90;;;;;;;1.97;100.00;101776.98;105512;1271;71441;-74
2022/03/28 04:55:03;;;;;;;6.40;3.50;;;;;;;1.96;100.00;101776.36;105239;1271;72947;-73
2022/03/28 04:57:30;;;;;;;5.50;3.20;;;;;;;1.94;100.00;101778.95;105392;1271;61356;-72
2022/03/28 04:59:57;;;;;;;7.10;3.40;;;;;;;1.90;100.00;101777.80;105344;1271;61239;-72
2022/03/28 05:02:23;;;;;;;3.90;2.30;;;;;;;1.86;100.00;101778.23;105329;1271;73899;-72
2022/03/28 05:04:50;;;;;;;4.80;3.40;;;;;;;1.81;100.00;101774.65;105330;1271;71360;-72
2022/03/28 05:07:24;;;;;;;5.70;3.10;;;;;;;1.78;100.00;101772.73;105277;1272;74352;-72
2022/03/28 05:09:53;;;;;;;5.80;3.20;;;;;;;1.76;100.00;101768.35;105415;1271;62747;-74
2022/03/28 05:12:20;;;;;;;5.00;3.00;;;;;;;1.73;100.00;101769.02;105464;1271;62020;-70
2022/03/28 05:14:48;;;;;;;12.20;5.40;;;;;;;1.72;100.00;101769.27;105308;1273;76017;-69
2022/03/28 05:17:18;;;;;;;9.90;5.20;;;;;;;1.70;100.00;101770.59;105341;1273;72748;-70
2022/03/28 05:19:45;;;;;;;5.30;3.30;;;;;;;1.72;100.00;101771.39;105281;1271;74999;-70
2022/03/28 05:22:11;;;;;;;6.50;2.80;;;;;;;1.71;100.00;101769.69;105202;1271;61614;-71
2022/03/28 05:24:38;;;;;;;9.60;4.60;;;;;;;1.70;100.00;101764.85;105239;1271;61630;-72
2022/03/28 05:27:05;;;;;;;9.50;3.20;;;;;;;1.71;100.00;101767.95;105388;1271;74857;-73
2022/03/28 05:29:32;;;;;;;11.20;4.80;;;;;;;1.72;100.00;101763.34;105242;1274;71549;-74
2022/03/28 05:31:59;;;;;;;9.20;3.80;;;;;;;1.73;100.00;101760.13;105376;1271;73953;-71
2022/03/28 05:34:25;;;;;;;19.40;8.20;;;;;;;1.75;100.00;101758.97;105340;1271;61822;-71
2022/03/28 05:36:52;;;;;;;9.30;4.90;;;;;;;1.78;100.00;101755.84;105496;1271;61233;-71
2022/03/28 05:39:19;;;;;;;11.00;5.60;;;;;;;1.79;100.00;101753.84;105500;1271;74149;-71
2022/03/28 05:41:46;;;;;;;8.50;3.80;;;;;;;1.82;100.00;101754.04;105232;1271;70407;-71
2022/03/28 05:44:13;;;;;;;6.60;3.60;;;;;;;1.82;100.00;101751.02;105375;1271;72903;-71
2022/03/28 05:46:39;;;;;;;8.50;5.10;;;;;;;1.83;100.00;101752.41;105286;1271;62613;-73
2022/03/28 05:49:06;;;;;;;10.40;6.50;;;;;;;1.84;100.00;101746.73;105248;1274;61354;-72
2022/03/28 05:51:33;;;;;;;5.90;3.40;;;;;;;1.86;100.00;101745.41;105333;1271;72777;-70
2022/03/28 05:53:59;;;;;;;6.40;3.70;;;;;;;1.88;100.00;101743.91;105299;1271;61224;-69
2022/03/28 05:56:26;;;;;;;11.30;4.70;;;;;;;1.88;100.00;101744.26;105342;1271;76206;-69
2022/03/28 05:58:56;;;;;;;9.00;4.20;;;;;;;1.89;100.00;101743.34;105199;1271;62454;-70
2022/03/28 06:01:23;;;;;;;6.50;4.20;;;;;;;1.92;100.00;101739.98;105222;1271;62540;-72
2022/03/28 06:03:50;;;;;;;9.30;3.60;;;;;;;1.94;100.00;101738.63;105208;1272;76049;-71
2022/03/28 06:06:17;;;;;;;8.90;4.30;;;;;;;1.95;100.00;101739.11;105183;1271;70197;-69
2022/03/28 06:08:43;;;;;;;13.80;5.30;;;;;;;1.95;100.00;101743.64;105210;1273;72921;-69
2022/03/28 06:11:10;;;;;;;7.30;4.20;;;;;;;1.98;100.00;101733.02;105154;1271;61316;-69
2022/03/28 06:13:37;;;;;;;11.10;4.60;;;;;;;2.03;100.00;101737.92;105251;1271;61936;-69
2022/03/28 06:16:06;;;;;;;13.60;5.80;;;;;;;2.06;100.00;101737.05;105419;1271;74929;-72
2022/03/28 06:18:42;;;;;;;12.20;4.70;;;;;;;2.08;100.00;101739.91;105251;1274;70114;-68
2022/03/28 06:21:08;;;;;;;11.00;4.10;;;;;;;2.10;100.00;101741.72;105066;1273;72919;-71
2022/03/28 06:23:35;;;;;;;8.70;4.30;;;;;;;2.15;100.00;101739.48;105215;1272;61256;-68
2022/03/28 06:26:42;;;;;;;10.20;5.60;;;;;;;2.21;100.00;101736.28;104977;1274;61241;-70
2022/03/28 06:29:10;;;;;;;5.70;3.20;;;;;;;2.28;100.00;101738.50;105047;1274;75115;-69
2022/03/28 06:31:40;;;;;;;7.20;3.30;;;;;;;2.34;100.00;101738.77;105180;1274;72400;-67
2022/03/28 06:34:12;;;;;;;8.40;4.50;;;;;;;2.44;100.00;101741.66;105320;1274;72894;-68
2022/03/28 06:36:39;;;;;;;10.20;4.70;;;;;;;2.54;100.00;101741.21;105141;1274;61295;-69
2022/03/28 06:39:06;;;;;;;12.30;5.10;;;;;;;2.61;100.00;101742.52;105221;1274;61603;-68
2022/03/28 06:41:32;;;;;;;7.30;4.00;;;;;;;2.65;100.00;101740.67;105164;1274;75929;-67
2022/03/28 06:43:59;;;;;;;12.50;4.90;;;;;;;2.67;100.00;101736.59;104931;1274;71429;-67
2022/03/28 06:46:26;;;;;;;10.30;4.90;;;;;;;2.68;100.00;101735.46;104928;1274;74057;-69
2022/03/28 06:48:54;;;;;;;10.40;3.90;;;;;;;2.68;100.00;101730.39;105053;1272;62543;-68
2022/03/28 06:51:21;;;;;;;21.10;6.40;;;;;;;2.68;100.00;101724.09;105043;1273;61342;-68
2022/03/28 06:53:48;;;;;;;15.80;7.40;;;;;;;2.69;100.00;101727.86;105171;1274;74910;-70
2022/03/28 06:56:18;;;;;;;13.20;5.40;;;;;;;2.72;100.00;101720.17;105084;1273;72437;-68
2022/03/28 06:58:47;;;;;;;11.90;6.60;;;;;;;2.78;100.00;101723.59;105239;1273;74694;-67
2022/03/28 07:01:14;;;;;;;9.30;4.00;;;;;;;2.82;100.00;101718.45;105129;1274;61286;-70
2022/03/28 07:03:46;;;;;;;11.80;5.10;;;;;;;2.83;100.00;101718.55;105070;1274;61240;-68
2022/03/28 07:06:13;;;;;;;11.10;4.60;;;;;;;2.85;100.00;101708.33;105192;1271;73705;-67
2022/03/28 07:08:41;;;;;;;10.50;4.20;;;;;;;2.89;100.00;101705.09;105027;1274;71348;-69
2022/03/28 07:11:08;;;;;;;8.90;4.40;;;;;;;2.93;100.00;101701.73;105156;1273;61349;-71
2022/03/28 07:13:34;;;;;;;18.20;8.00;;;;;;;2.98;100.00;101699.41;105034;1274;61247;-66
2022/03/28 07:16:01;;;;;;;14.60;7.00;;;;;;;3.05;100.00;101701.45;105163;1274;61195;-69
2022/03/28 07:18:28;;;;;;;13.90;5.30;;;;;;;3.10;100.00;101701.08;105455;1271;61395;-67
2022/03/28 07:20:54;;;;;;;10.10;5.00;;;;;;;3.16;100.00;101702.80;105351;1274;70416;-70
2022/03/28 07:23:27;;;;;;;15.00;8.40;;;;;;;3.21;100.00;101703.34;105069;1274;73493;-68
2022/03/28 07:25:56;;;;;;;11.10;4.60;;;;;;;3.26;100.00;101701.46;105242;1274;62135;-68
2022/03/28 07:28:22;;;;;;;16.70;8.00;;;;;;;3.32;100.00;101712.23;105247;1271;61349;-68
2022/03/28 07:30:49;;;;;;;15.40;7.70;;;;;;;3.37;100.00;101711.19;105054;1274;75003;-68
2022/03/28 07:33:16;;;;;;;14.60;6.00;;;;;;;3.41;100.00;101711.10;104998;1271;71491;-68
2022/03/28 07:35:45;;;;;;;17.20;8.20;;;;;;;3.43;100.00;101710.42;104895;1277;74203;-70
2022/03/28 07:38:12;;;;;;;13.30;7.60;;;;;;;3.46;100.00;101713.18;105248;1271;61493;-69
2022/03/28 07:40:43;;;;;;;20.60;8.00;;;;;;;3.44;100.00;101716.70;105209;1273;61259;-68
2022/03/28 07:43:11;;;;;;;19.70;10.00;;;;;;;3.41;100.00;101711.98;105207;1274;75119;-69
2022/03/28 07:45:38;;;;;;;16.90;9.10;;;;;;;3.45;100.00;101713.28;105059;1274;71419;-69
2022/03/28 07:48:06;;;;;;;13.00;6.60;;;;;;;3.52;100.00;101711.25;105092;1274;74286;-69
2022/03/28 07:50:36;;;;;;;29.80;11.80;;;;;;;3.58;100.00;101709.21;105066;1273;61577;-70
2022/03/28 07:53:03;;;;;;;23.40;9.10;;;;;;;3.61;100.00;101706.23;105074;1274;61241;-68
2022/03/28 07:55:30;;;;;;;22.00;9.80;;;;;;;3.62;100.00;101703.71;105180;1274;73839;-70
2022/03/28 07:57:59;;;;;;;16.60;6.70;;;;;;;3.70;100.00;101700.21;104977;1274;72888;-68
2022/03/28 08:00:26;;;;;;;8.00;4.10;;;;;;;3.81;100.00;101690.84;105182;1272;72930;-69
2022/03/28 08:02:53;;;;;;;5.60;3.60;;;;;;;3.93;100.00;101695.69;104987;1271;61329;-68
2022/03/28 08:05:20;;;;;;;7.80;4.60;;;;;;;4.03;99.92;101698.27;105010;1274;61770;-71
2022/03/28 08:07:51;;;;;;;5.00;3.30;;;;;;;4.10;99.38;101696.70;105256;1274;74102;-70
2022/03/28 08:10:18;;;;;;;7.20;3.20;;;;;;;4.17;98.69;101694.67;105113;1274;71296;-70
2022/03/28 08:12:45;;;;;;;4.00;2.40;;;;;;;4.25;97.85;101693.55;105098;1274;73128;-68
2022/03/28 08:15:13;;;;;;;8.30;4.00;;;;;;;4.31;97.10;101693.15;105117;1274;61325;-69
2022/03/28 08:17:41;;;;;;;7.10;4.00;;;;;;;4.38;96.91;101690.02;105076;1274;61470;-70
2022/03/28 08:20:10;;;;;;;10.40;6.30;;;;;;;4.41;96.01;101681.56;105050;1274;76015;-70
2022/03/28 08:22:49;;;;;;;9.10;5.10;;;;;;;4.44;96.00;101678.91;105036;1271;72491;-70
2022/03/28 08:25:18;;;;;;;11.70;6.10;;;;;;;4.52;96.08;101677.13;105071;1271;72925;-68
2022/03/28 08:27:45;;;;;;;31.80;16.60;;;;;;;4.63;95.92;101682.10;105084;1274;61815;-70
2022/03/28 08:30:12;;;;;;;33.60;17.00;;;;;;;4.75;95.66;101683.28;105061;1274;61188;-68
2022/03/28 08:32:43;;;;;;;24.20;12.40;;;;;;;4.85;94.90;101676.06;105136;1274;74731;-68
2022/03/28 08:35:10;;;;;;;12.50;6.70;;;;;;;4.95;94.23;101676.73;105223;1274;72462;-68
2022/03/28 08:37:38;;;;;;;13.60;7.30;;;;;;;4.99;94.02;101673.11;105141;1272;73894;-70
2022/03/28 08:40:11;;;;;;;11.20;6.00;;;;;;;5.04;93.62;101664.92;104983;1272;61277;-67
2022/03/28 08:42:41;;;;;;;10.20;6.00;;;;;;;5.12;94.10;101660.03;105093;1273;61305;-68
2022/03/28 08:45:11;;;;;;;11.20;4.60;;;;;;;5.27;93.83;101661.36;105060;1273;75514;-69
2022/03/28 08:47:42;;;;;;;13.50;7.30;;;;;;;5.43;93.32;101655.45;104987;1274;71385;-68
2022/03/28 08:50:28;;;;;;;10.00;5.40;;;;;;;5.57;92.00;101650.48;105014;1271;76625;-69
2022/03/28 08:52:55;;;;;;;9.00;4.60;;;;;;;5.65;91.11;101646.89;105090;1274;62538;-68
2022/03/28 08:55:22;;;;;;;7.40;4.10;;;;;;;5.77;90.62;101643.16;105134;1272;61281;-68
2022/03/28 08:57:52;;;;;;;5.10;3.20;;;;;;;5.88;90.46;101644.22;105099;1274;74956;-69
2022/03/28 09:00:19;;;;;;;9.60;4.80;;;;;;;5.99;89.77;101640.21;105249;1272;71375;-69
2022/03/28 09:02:47;;;;;;;7.50;4.10;;;;;;;6.20;90.14;101632.27;105376;1272;74257;-70
2022/03/28 09:05:29;;;;;;;10.00;4.60;;;;;;;6.36;88.85;101635.35;105105;1274;61514;-69
2022/03/28 09:07:58;;;;;;;5.20;3.30;;;;;;;6.53;88.27;101627.95;105068;1274;61259;-68
2022/03/28 09:10:28;;;;;;;7.90;2.90;;;;;;;6.68;87.68;101627.80;104928;1274;75180;-70
2022/03/28 09:13:05;;;;;;;8.50;3.10;;;;;;;6.83;86.87;101625.67;104827;1274;71477;-71
2022/03/28 09:15:43;;;;;;;4.70;2.90;;;;;;;7.00;86.66;101626.04;105170;1271;74042;-70
2022/03/28 09:18:24;;;;;;;5.10;3.10;;;;;;;7.20;85.92;101622.23;104966;1274;62712;-71
2022/03/28 09:20:54;;;;;;;5.90;3.10;;;;;;;7.31;84.23;101626.56;104943;1274;61204;-68
2022/03/28 09:23:34;;;;;;;7.20;3.10;;;;;;;7.43;83.98;101623.69;104948;1274;74856;-70
2022/03/28 09:26:20;;;;;;;6.00;2.40;;;;;;;7.47;83.02;101623.11;105146;1274;71415;-69
2022/03/28 09:28:53;;;;;;;6.60;3.20;;;;;;;7.60;82.85;101625.89;105061;1274;74104;-68
2022/03/28 09:31:31;;;;;;;12.30;5.20;;;;;;;7.78;82.51;101621.63;105048;1274;63029;-73
2022/03/28 09:34:18;;;;;;;11.90;4.80;;;;;;;7.92;81.19;101625.54;105052;1274;61326;-70
2022/03/28 09:36:54;;;;;;;7.50;4.40;;;;;;;8.02;80.21;101621.01;105075;1274;75994;-69
2022/03/28 09:39:29;;;;;;;9.20;5.20;;;;;;;8.12;80.25;101612.85;105093;1274;71343;-69
2022/03/28 09:42:09;;;;;;;13.30;7.00;;;;;;;8.23;79.28;101609.75;105109;1274;72924;-69
2022/03/28 09:44:51;;;;;;;9.70;4.40;;;;;;;8.36;79.26;101608.79;105003;1274;62464;-71
2022/03/28 09:47:20;;;;;;;7.60;2.90;;;;;;;8.42;78.54;101606.69;104981;1274;61831;-73
2022/03/28 09:49:53;;;;;;;6.90;2.90;;;;;;;8.55;78.82;101597.61;104948;1274;74911;-69
2022/03/28 09:52:28;;;;;;;6.80;3.70;;;;;;;8.70;78.29;101595.55;105082;1274;70492;-73
2022/03/28 09:54:57;;;;;;;5.70;2.30;;;;;;;8.86;77.48;101601.45;105077;1274;74539;-69
2022/03/28 09:57:28;;;;;;;5.20;2.20;;;;;;;8.96;76.20;101598.77;105071;1274;61881;-67
2022/03/28 10:00:10;;;;;;;5.40;2.70;;;;;;;9.00;76.16;101602.47;105074;1274;61432;-67
2022/03/28 10:02:37;;;;;;;7.10;2.70;;;;;;;9.10;76.09;101599.58;105205;1275;75938;-67
2022/03/28 10:05:10;;;;;;;10.90;3.50;;;;;;;9.13;74.96;101598.58;105074;1272;72910;-67
2022/03/28 10:07:36;;;;;;;7.30;2.70;;;;;;;9.16;75.50;101595.34;105078;1274;74128;-69
2022/03/28 10:10:04;;;;;;;8.90;3.40;;;;;;;9.20;75.56;101588.98;105083;1274;63294;-70
2022/03/28 10:12:31;;;;;;;10.90;3.60;;;;;;;9.25;75.44;101586.71;105168;1274;61399;-71
2022/03/28 10:15:01;;;;;;;10.80;4.30;;;;;;;9.25;75.08;101583.19;105049;1274;75931;-70
2022/03/28 10:17:30;;;;;;;9.70;3.90;;;;;;;9.31;75.41;101582.77;105256;1274;72285;-71
2022/03/28 10:20:02;;;;;;;7.70;4.50;;;;;;;9.33;75.30;101578.70;105476;1271;73166;-71
2022/03/28 10:22:52;;;;;;;7.90;3.90;;;;;;;9.40;75.25;101570.16;105047;1274;62421;-70
2022/03/28 10:25:23;;;;;;;9.90;4.40;;;;;;;9.42;75.28;101566.76;105280;1274;61262;-69
2022/03/28 10:27:52;;;;;;;8.40;5.00;;;;;;;9.47;75.32;101564.36;105138;1273;73631;-70
2022/03/28 10:30:24;;;;;;;8.90;4.60;;;;;;;9.55;75.07;101563.91;105081;1273;71173;-68
2022/03/28 10:33:08;;;;;;;9.20;5.30;;;;;;;9.65;74.71;101567.38;104983;1274;72923;-69
2022/03/28 10:35:35;;;;;;;13.50;5.30;;;;;;;9.77;74.62;101559.75;105081;1272;63411;-69
2022/03/28 10:38:19;;;;;;;11.10;5.30;;;;;;;9.83;74.48;101556.17;104983;1274;61397;-68
2022/03/28 10:41:06;;;;;;;8.60;4.30;;;;;;;9.94;74.68;101552.42;105089;1271;76199;-70
2022/03/28 10:43:34;;;;;;;11.00;4.90;;;;;;;10.06;73.85;101550.89;104964;1274;71405;-67
2022/03/28 10:46:11;;;;;;;13.60;6.30;;;;;;;10.19;73.56;101544.36;105013;1274;73161;-70
2022/03/28 10:48:40;;;;;;;9.70;4.00;;;;;;;10.39;73.14;101536.32;105234;1273;63455;-68
2022/03/28 10:51:11;;;;;;;9.50;4.50;;;;;;;10.52;72.13;101535.63;105132;1274;61299;-70
2022/03/28 10:53:53;;;;;;;11.40;5.80;;;;;;;10.60;71.49;101526.99;105149;1274;76444;-66
2022/03/28 10:56:42;;;;;;;9.10;5.10;;;;;;;10.65;70.96;101525.67;104994;1274;70700;-66
2022/03/28 10:59:17;;;;;;;12.40;5.80;;;;;;;10.67;71.39;101523.66;105051;1271;74653;-68
2022/03/28 11:01:49;;;;;;;12.00;5.70;;;;;;;10.64;71.10;101522.20;104919;1272;61352;-70
2022/03/28 11:04:24;;;;;;;10.60;5.30;;;;;;;10.62;71.24;101521.27;104997;1274;61204;-71
2022/03/28 11:07:02;;;;;;;11.30;5.40;;;;;;;10.58;70.89;101525.38;104985;1274;74920;-69
2022/03/28 11:09:41;;;;;;;9.90;4.50;;;;;;;10.63;71.24;101520.91;104915;1274;70345;-72
2022/03/28 11:12:12;;;;;;;8.60;5.00;;;;;;;10.78;71.61;101511.56;105092;1273;72876;-72
2022/03/28 11:14:51;;;;;;;8.80;4.30;;;;;;;10.97;70.93;101504.45;105018;1274;62826;-69
2022/03/28 11:17:22;;;;;;;15.40;5.90;;;;;;;10.98;70.23;101496.25;105001;1274;61269;-70
2022/03/28 11:20:00;;;;;;;11.60;5.90;;;;;;;11.03;70.10;101497.17;105006;1273;75741;-68
2022/03/28 11:22:48;;;;;;;10.70;6.30;;;;;;;11.12;69.62;101495.33;104943;1272;72492;-71